createdAt,value
2023-03-29T00:00:35.933Z,70
2023-03-29T00:10:42.135Z,67.5
2023-03-29T00:20:48.348Z,71
2023-03-29T00:30:54.549Z,71
2023-03-29T00:41:00.778Z,72
2023-03-29T00:51:06.980Z,72
2023-03-29T01:01:12.242Z,73
2023-03-29T01:11:18.456Z,73.5
2023-03-29T01:21:24.679Z,73.5
2023-03-29T01:31:30.906Z,74
2023-03-29T01:41:37.097Z,74.5
2023-03-29T01:51:43.305Z,73
2023-03-29T02:01:49.522Z,75.5
2023-03-29T02:11:55.724Z,76
2023-03-29T02:22:01.964Z,76
2023-03-29T02:32:08.153Z,76
2023-03-29T02:42:14.359Z,76
2023-03-29T02:52:20.573Z,75.5
2023-03-29T03:02:26.789Z,77
2023-03-29T03:12:32.047Z,78
2023-03-29T03:22:38.269Z,78.5
2023-03-29T03:32:44.477Z,78
2023-03-29T03:42:50.688Z,79.5
2023-03-29T03:52:56.897Z,77
2023-03-29T04:03:03.100Z,77
2023-03-29T04:13:09.316Z,79.5
2023-03-29T04:23:15.521Z,79.5
2023-03-29T04:33:21.730Z,79
2023-03-29T04:43:27.948Z,79.5
2023-03-29T04:53:34.169Z,77
2023-03-29T05:03:40.406Z,77
2023-03-29T05:13:46.599Z,79
2023-03-29T05:23:52.796Z,77.5
2023-03-29T05:33:58.059Z,80.5
2023-03-29T05:44:04.271Z,79
2023-03-29T05:54:10.487Z,79.5
2023-03-29T06:04:16.709Z,77.5
2023-03-29T06:14:22.897Z,77
2023-03-29T06:24:29.124Z,75
2023-03-29T06:34:35.328Z,76
2023-03-29T06:44:41.605Z,74.5
2023-03-29T06:54:47.754Z,73.5
2023-03-29T07:04:53.956Z,73
2023-03-29T07:15:00.155Z,72.5
2023-03-29T07:25:06.364Z,69.5
2023-03-29T07:35:12.585Z,69.5
2023-03-29T07:45:18.789Z,69
2023-03-29T07:55:24.033Z,70
2023-03-29T08:05:30.251Z,69.5
2023-03-29T08:15:36.441Z,69.5
2023-03-29T08:25:42.635Z,67
2023-03-29T08:35:48.849Z,66
2023-03-29T08:45:55.112Z,64
2023-03-29T08:56:01.255Z,62.5
2023-03-29T09:06:07.455Z,61
2023-03-29T09:26:19.874Z,62
2023-03-29T09:36:26.074Z,60.5
2023-03-29T09:56:38.493Z,60
2023-03-29T10:06:43.747Z,58.5
2023-03-29T10:16:49.959Z,57.5
2023-03-29T10:26:56.235Z,57.5
2023-03-29T10:37:02.453Z,57.5
2023-03-29T10:47:08.642Z,57
2023-03-29T10:57:14.874Z,58
2023-03-29T11:07:21.075Z,58.5
2023-03-29T11:17:27.270Z,59
2023-03-29T11:27:33.484Z,57
2023-03-29T11:37:39.696Z,57
2023-03-29T11:47:45.895Z,57.5
2023-03-29T11:57:52.116Z,55
2023-03-29T12:07:58.296Z,56
2023-03-29T12:18:03.548Z,55.5
2023-03-29T12:28:09.950Z,54
2023-03-29T12:38:16.144Z,54.5
2023-03-29T12:48:22.354Z,57.5
2023-03-29T12:58:28.569Z,57
2023-03-29T13:08:34.767Z,56
2023-03-29T13:18:40.982Z,55.5
2023-03-29T13:28:47.205Z,58
2023-03-29T13:38:53.390Z,58
2023-03-29T13:48:59.677Z,58
2023-03-29T13:59:05.903Z,58
2023-03-29T14:09:12.108Z,57
2023-03-29T14:19:18.307Z,57
2023-03-29T14:29:23.607Z,56
2023-03-29T14:39:29.764Z,56.5
2023-03-29T14:49:35.986Z,56.5
2023-03-29T14:59:42.181Z,55.5
2023-03-29T15:09:48.404Z,55
2023-03-29T15:19:54.592Z,57
2023-03-29T15:30:00.798Z,55
2023-03-29T15:40:07.011Z,53.5
2023-03-29T15:50:13.204Z,53.5
2023-03-29T16:00:19.415Z,55
2023-03-29T16:10:25.638Z,54.5
2023-03-29T16:20:31.833Z,55.5
2023-03-29T16:30:38.035Z,56.5
2023-03-29T16:40:43.299Z,57.5
2023-03-29T16:50:49.521Z,60
2023-03-29T17:11:01.900Z,61.5
2023-03-29T17:21:08.130Z,63
2023-03-29T17:31:14.328Z,62.5
2023-03-29T17:41:20.556Z,63
2023-03-29T17:51:26.724Z,64
2023-03-29T18:01:32.950Z,65
2023-03-29T18:11:39.170Z,67.5
2023-03-29T18:21:45.359Z,68.5
2023-03-29T18:31:51.564Z,69.5
2023-03-29T18:41:57.777Z,71.5
2023-03-29T18:52:03.018Z,72
2023-03-29T19:02:09.241Z,72.5
2023-03-29T19:12:15.442Z,73
2023-03-29T19:22:21.633Z,73.5
2023-03-29T19:32:27.859Z,75.5
2023-03-29T19:42:34.056Z,77.5
2023-03-29T19:52:40.230Z,78
2023-03-29T20:02:46.449Z,76.5
2023-03-29T20:12:52.659Z,78.5
2023-03-29T20:22:58.854Z,76
2023-03-29T20:33:05.059Z,79
2023-03-29T20:43:11.264Z,79
2023-03-29T20:53:17.465Z,78.5
2023-03-29T21:03:22.751Z,78.5
2023-03-29T21:13:28.936Z,79.5
2023-03-29T21:23:35.145Z,78.5
2023-03-29T21:33:41.347Z,78
2023-03-29T21:43:47.552Z,76.5
2023-03-29T21:53:53.761Z,74
2023-03-29T22:04:00.007Z,75
2023-03-29T22:14:06.184Z,74
2023-03-29T22:24:12.373Z,73
2023-03-29T22:34:18.591Z,73.5
2023-03-29T22:44:24.792Z,73.5
2023-03-29T22:54:31.002Z,73.5
2023-03-29T23:04:36.279Z,73
2023-03-29T23:14:42.483Z,73
2023-03-29T23:24:48.673Z,73.5
2023-03-29T23:34:54.891Z,73.5
2023-03-29T23:45:01.251Z,73
2023-03-29T23:55:07.312Z,72
